Time;durP1;ratioP1;P1;durP2;ratioP2;P2;SDS_P1;SDS_P2;PMS_P1;PMS_P2;Temp;Humidity;BMP_temperature;BMP_pressure;BME280_temperature;BME280_humidity;BME280_pressure;Samples;Min_cycle;Max_cycle;Signal;HPM_P1;HPM_P2
2022/01/24 00:01:38;;;;;;;11.00;6.87;;;3.90;99.90;;;;;;5015025;28;20450;-55
2022/01/24 00:04:05;;;;;;;9.70;6.70;;;3.80;99.90;;;;;;5019339;28;20532;-55
2022/01/24 00:06:32;;;;;;;7.43;6.40;;;3.80;99.90;;;;;;5034626;28;20472;-56
2022/01/24 00:08:59;;;;;;;7.60;6.60;;;3.70;99.90;;;;;;5034627;28;20461;-56
2022/01/24 00:11:37;;;;;;;8.50;6.77;;;3.60;99.90;;;;;;5034593;28;20421;-55
2022/01/24 00:27:11;;;;;;;9.27;7.97;;;3.40;99.90;;;;;;5034855;28;20429;-56
2022/01/24 00:29:37;;;;;;;8.43;7.20;;;3.40;99.90;;;;;;5034548;28;20402;-57
2022/01/24 00:32:03;;;;;;;11.00;8.33;;;3.40;99.90;;;;;;5034481;28;20458;-58
2022/01/24 00:34:29;;;;;;;8.10;6.33;;;3.40;99.90;;;;;;5034758;28;20175;-56
2022/01/24 00:36:55;;;;;;;10.73;7.70;;;3.40;99.90;;;;;;5033946;28;20898;-57
2022/01/24 00:39:21;;;;;;;8.90;7.37;;;3.30;99.90;;;;;;5034478;28;20178;-56
2022/01/24 00:46:54;;;;;;;11.07;8.20;;;3.20;99.90;;;;;;5034675;28;20386;-55
2022/01/24 00:57:01;;;;;;;9.30;8.33;;;3.10;99.90;;;;;;5034129;28;20386;-56
2022/01/24 00:59:26;;;;;;;12.33;8.53;;;3.10;99.90;;;;;;5033664;28;20781;-53
2022/01/24 01:01:53;;;;;;;10.97;9.10;;;3.10;99.90;;;;;;5033456;28;20454;-57
2022/01/24 01:04:22;;;;;;;9.73;8.00;;;3.10;99.90;;;;;;5033205;28;20198;-56
2022/01/24 01:06:49;;;;;;;10.23;8.43;;;3.10;99.90;;;;;;5015652;28;20417;-53
2022/01/24 01:20:16;;;;;;;13.87;9.20;;;3.00;99.90;;;;;;5033361;28;20995;-56
2022/01/24 01:22:42;;;;;;;13.90;9.03;;;3.00;99.90;;;;;;5033369;28;20436;-57
2022/01/24 01:25:08;;;;;;;12.37;9.03;;;3.00;99.90;;;;;;5033459;28;20866;-56
2022/01/24 01:27:39;;;;;;;13.67;10.43;;;3.10;99.90;;;;;;5033535;28;20523;-53
2022/01/24 01:30:14;;;;;;;10.00;8.57;;;3.00;99.90;;;;;;5033386;28;20426;-55
2022/01/24 01:56:27;;;;;;;14.17;10.07;;;2.80;99.90;;;;;;4996059;28;20434;-54
2022/01/24 01:58:52;;;;;;;15.23;11.80;;;2.80;99.90;;;;;;4998202;28;20992;-56
2022/01/24 02:01:18;;;;;;;12.20;9.90;;;2.70;99.90;;;;;;5035135;22;20566;-60
2022/01/24 02:03:44;;;;;;;11.93;9.90;;;2.70;99.90;;;;;;5037029;28;20191;-60
2022/01/24 02:06:11;;;;;;;14.47;11.03;;;2.70;99.90;;;;;;5037217;28;20648;-60
2022/01/24 02:08:38;;;;;;;12.23;9.70;;;2.80;99.90;;;;;;5037193;28;20170;-59
2022/01/24 02:11:04;;;;;;;13.03;10.03;;;2.80;99.90;;;;;;5042013;28;20988;-60
2022/01/24 02:13:31;;;;;;;13.07;10.67;;;2.80;99.90;;;;;;5057013;28;20488;-59
2022/01/24 02:16:12;;;;;;;14.47;10.70;;;2.80;99.90;;;;;;5056722;28;20179;-60
2022/01/24 02:19:09;;;;;;;11.80;10.30;;;2.70;99.90;;;;;;5056940;28;20488;-61
2022/01/24 02:22:39;;;;;;;13.60;10.73;;;2.70;99.90;;;;;;5056595;28;20429;-60
2022/01/24 02:24:39;;;;;;;12.50;9.97;;;2.80;99.90;;;;;;5052162;28;20472;-60
2022/01/24 02:27:06;;;;;;;14.30;11.50;;;2.70;99.90;;;;;;5056509;28;20388;-60
2022/01/24 02:31:57;;;;;;;13.77;9.70;;;2.60;99.90;;;;;;5056514;28;20416;-61
2022/01/24 02:34:33;;;;;;;16.30;10.40;;;2.60;99.90;;;;;;5056605;28;20175;-60
2022/01/24 02:37:11;;;;;;;12.77;10.10;;;2.60;99.90;;;;;;5056682;28;20627;-62
2022/01/24 02:53:31;;;;;;;12.13;9.60;;;2.60;99.90;;;;;;5055995;28;20400;-61
2022/01/24 02:55:56;;;;;;;13.17;9.73;;;2.50;99.90;;;;;;5055911;28;20492;-60
2022/01/24 02:58:22;;;;;;;13.53;10.57;;;2.50;99.90;;;;;;5056851;28;20805;-61
2022/01/24 03:00:49;;;;;;;10.90;8.63;;;2.50;99.90;;;;;;5056558;28;20571;-62
2022/01/24 03:03:16;;;;;;;10.43;7.67;;;2.50;99.90;;;;;;5055786;28;20221;-61
2022/01/24 03:05:42;;;;;;;10.20;8.77;;;2.50;99.90;;;;;;5056237;28;20901;-60
2022/01/24 03:08:08;;;;;;;14.50;9.60;;;2.50;99.90;;;;;;5055533;28;20397;-61
2022/01/24 03:10:41;;;;;;;12.10;9.30;;;2.50;99.90;;;;;;5055707;28;20405;-60
2022/01/24 03:13:19;;;;;;;11.17;9.37;;;2.50;99.90;;;;;;5056365;28;20804;-61
2022/01/24 03:15:47;;;;;;;10.87;9.33;;;2.50;99.90;;;;;;5055876;28;20374;-60
2022/01/24 03:18:13;;;;;;;12.83;8.50;;;2.40;99.90;;;;;;5055655;28;20393;-61
2022/01/24 03:20:39;;;;;;;12.07;9.63;;;2.50;99.90;;;;;;5055822;28;20405;-60
2022/01/24 03:23:06;;;;;;;9.60;8.23;;;2.50;99.90;;;;;;5055357;28;20489;-61
2022/01/24 03:25:32;;;;;;;12.43;9.20;;;2.40;99.90;;;;;;5055672;28;20976;-61
2022/01/24 03:27:57;;;;;;;11.90;8.67;;;2.40;99.90;;;;;;5055885;28;20443;-60
2022/01/24 03:30:24;;;;;;;10.43;8.33;;;2.40;99.90;;;;;;5056182;28;20226;-60
2022/01/24 03:32:50;;;;;;;12.07;9.10;;;2.40;99.90;;;;;;5055114;28;20583;-60
2022/01/24 03:35:16;;;;;;;12.40;9.40;;;2.40;99.90;;;;;;5055487;28;20488;-60
2022/01/24 03:37:41;;;;;;;11.23;9.20;;;2.30;99.90;;;;;;5055437;28;20408;-61
2022/01/24 03:40:08;;;;;;;13.43;10.43;;;2.30;99.90;;;;;;5055506;28;20793;-61
2022/01/24 03:42:33;;;;;;;12.63;9.37;;;2.30;99.90;;;;;;5055152;28;20248;-61
2022/01/24 03:45:03;;;;;;;12.80;9.50;;;2.30;99.90;;;;;;5055352;28;20480;-61
2022/01/24 03:50:05;;;;;;;11.47;10.30;;;2.30;99.90;;;;;;5055397;28;20491;-60
2022/01/24 03:52:30;;;;;;;13.60;10.30;;;2.30;99.90;;;;;;5054982;28;20523;-61
2022/01/24 03:54:57;;;;;;;13.97;11.33;;;2.30;99.90;;;;;;5053638;28;20435;-61
2022/01/24 03:57:23;;;;;;;14.53;11.10;;;2.20;99.90;;;;;;5053230;28;20170;-61
2022/01/24 03:59:50;;;;;;;13.87;10.07;;;2.20;99.90;;;;;;5055386;28;20775;-61
2022/01/24 04:02:17;;;;;;;15.27;10.10;;;2.20;99.90;;;;;;5054741;28;21001;-62
2022/01/24 04:04:43;;;;;;;13.47;9.73;;;2.10;99.90;;;;;;5053524;28;20445;-60
2022/01/24 04:07:09;;;;;;;13.50;11.50;;;2.20;99.90;;;;;;5055194;28;20402;-61
2022/01/24 04:09:35;;;;;;;12.57;10.90;;;2.20;99.90;;;;;;5056080;28;20409;-61
2022/01/24 04:12:02;;;;;;;15.50;10.77;;;2.20;99.90;;;;;;5055235;28;20415;-61
2022/01/24 04:17:42;;;;;;;13.43;10.10;;;2.20;99.90;;;;;;5055196;28;20404;-60
2022/01/24 04:22:14;;;;;;;13.73;11.63;;;2.20;99.90;;;;;;5059437;28;20428;-60
2022/01/24 04:24:41;;;;;;;15.43;11.53;;;2.20;99.90;;;;;;5063004;28;20452;-61
2022/01/24 04:27:07;;;;;;;12.60;11.13;;;2.20;99.90;;;;;;5061068;28;20405;-61
2022/01/24 04:29:33;;;;;;;14.33;11.97;;;2.20;99.90;;;;;;5059846;28;20415;-61
2022/01/24 04:31:59;;;;;;;16.20;12.40;;;2.20;99.90;;;;;;5056779;28;20511;-61
2022/01/24 04:34:25;;;;;;;12.70;10.70;;;2.30;99.90;;;;;;5058723;28;20516;-60
2022/01/24 04:36:50;;;;;;;17.83;12.00;;;2.20;99.90;;;;;;5059292;28;20574;-60
2022/01/24 04:39:16;;;;;;;15.30;11.20;;;2.30;99.90;;;;;;5057665;28;20270;-61
2022/01/24 04:41:46;;;;;;;11.90;10.03;;;2.30;99.90;;;;;;5050885;28;20203;-61
2022/01/24 04:44:48;;;;;;;14.20;12.00;;;2.30;99.90;;;;;;5041800;28;20498;-61
2022/01/24 04:53:29;;;;;;;14.60;13.07;;;2.20;99.90;;;;;;5035499;28;20294;-60
2022/01/24 04:55:05;;;;;;;15.47;11.70;;;2.20;99.90;;;;;;5034394;28;20448;-60
2022/01/24 04:57:31;;;;;;;15.57;12.00;;;2.20;99.90;;;;;;5053700;28;20405;-60
2022/01/24 04:59:58;;;;;;;17.90;13.13;;;2.20;99.90;;;;;;5053747;28;20893;-59
2022/01/24 05:02:25;;;;;;;15.40;11.33;;;2.20;99.90;;;;;;5052150;28;20213;-59
2022/01/24 05:04:52;;;;;;;16.97;13.07;;;2.20;99.90;;;;;;5053708;28;20452;-59
2022/01/24 05:07:17;;;;;;;13.90;12.00;;;2.20;99.90;;;;;;5058005;28;20415;-60
2022/01/24 05:09:50;;;;;;;13.80;11.37;;;2.20;99.90;;;;;;5054246;28;20409;-61
2022/01/24 05:12:26;;;;;;;12.87;10.93;;;2.20;99.90;;;;;;5053549;28;20200;-61
2022/01/24 05:25:51;;;;;;;24.37;17.70;;;2.00;99.90;;;;;;5053824;28;20389;-62
2022/01/24 05:28:17;;;;;;;36.70;22.67;;;2.00;99.90;;;;;;5053545;28;20413;-61
2022/01/24 05:30:43;;;;;;;27.70;19.00;;;2.00;99.90;;;;;;5047757;28;20435;-60
2022/01/24 05:33:09;;;;;;;20.93;15.40;;;2.00;99.90;;;;;;5052933;28;20439;-60
2022/01/24 05:35:35;;;;;;;20.30;15.10;;;2.00;99.90;;;;;;5048652;28;20170;-60
2022/01/24 05:38:01;;;;;;;16.67;13.67;;;1.90;99.90;;;;;;5051539;28;20169;-57
2022/01/24 05:40:26;;;;;;;16.10;12.90;;;2.00;99.90;;;;;;5052959;28;20200;-61
2022/01/24 05:42:52;;;;;;;15.97;13.20;;;2.00;99.90;;;;;;5053017;28;20176;-60
2022/01/24 05:45:17;;;;;;;14.63;12.93;;;2.00;99.90;;;;;;5045316;28;20206;-60
2022/01/24 05:47:43;;;;;;;19.40;14.33;;;2.00;99.90;;;;;;5052940;28;20173;-61
2022/01/24 05:50:09;;;;;;;16.97;13.73;;;2.00;99.90;;;;;;5052839;28;20716;-60
2022/01/24 05:52:35;;;;;;;17.83;13.93;;;2.10;99.90;;;;;;5045080;28;20311;-60
2022/01/24 05:55:02;;;;;;;14.07;11.63;;;2.00;99.90;;;;;;5034169;28;20416;-60
2022/01/24 05:57:28;;;;;;;17.30;12.30;;;2.10;99.90;;;;;;5033147;28;20174;-59
2022/01/24 05:59:54;;;;;;;16.53;12.67;;;2.00;99.90;;;;;;5040013;28;20443;-60
2022/01/24 06:02:19;;;;;;;19.23;13.30;;;2.00;99.90;;;;;;5053026;28;20489;-59
2022/01/24 06:04:45;;;;;;;15.40;13.13;;;2.00;99.90;;;;;;5052695;28;20194;-59
2022/01/24 06:07:11;;;;;;;18.90;15.87;;;2.00;99.90;;;;;;5052743;28;20182;-56
2022/01/24 06:09:36;;;;;;;16.17;13.57;;;2.00;99.90;;;;;;5053025;28;20167;-59
2022/01/24 06:12:02;;;;;;;16.10;13.53;;;2.00;99.90;;;;;;5053033;28;20190;-60
2022/01/24 06:14:28;;;;;;;16.70;12.90;;;1.90;99.90;;;;;;5052975;28;20630;-60
2022/01/24 06:16:54;;;;;;;16.73;13.90;;;2.00;99.90;;;;;;5052875;28;20424;-59
2022/01/24 06:19:19;;;;;;;15.50;13.80;;;1.90;99.90;;;;;;5052439;28;20546;-60
2022/01/24 06:21:45;;;;;;;21.97;13.80;;;1.90;99.90;;;;;;5052890;28;20245;-60
2022/01/24 06:24:11;;;;;;;16.70;13.17;;;1.90;99.90;;;;;;5052565;28;20212;-57
2022/01/24 06:26:37;;;;;;;19.93;13.63;;;1.90;99.90;;;;;;5052521;28;20439;-60
2022/01/24 06:29:03;;;;;;;17.97;14.03;;;1.90;99.90;;;;;;5052882;28;20437;-59
2022/01/24 06:31:29;;;;;;;16.80;14.43;;;2.00;99.90;;;;;;5052622;28;20455;-58
2022/01/24 06:33:55;;;;;;;18.20;14.30;;;2.10;99.90;;;;;;5052310;28;20206;-58
2022/01/24 06:36:20;;;;;;;17.73;13.60;;;2.20;99.90;;;;;;5052656;28;20416;-61
2022/01/24 06:38:46;;;;;;;18.13;13.60;;;2.20;99.90;;;;;;5050696;28;20649;-55
2022/01/24 06:41:17;;;;;;;15.60;12.13;;;2.30;99.90;;;;;;5052175;28;20194;-60
2022/01/24 06:43:43;;;;;;;15.23;13.00;;;2.50;99.90;;;;;;5054801;28;20655;-59
2022/01/24 06:46:08;;;;;;;16.77;12.50;;;2.60;99.90;;;;;;5056290;28;20415;-58
2022/01/24 06:48:34;;;;;;;18.67;14.67;;;2.70;99.90;;;;;;5038124;28;20678;-61
2022/01/24 06:51:00;;;;;;;21.43;18.77;;;2.80;99.90;;;;;;5055934;28;20205;-61
2022/01/24 06:53:25;;;;;;;37.37;30.77;;;2.90;99.90;;;;;;5055633;28;20631;-58
2022/01/24 06:55:51;;;;;;;23.10;17.87;;;2.90;99.90;;;;;;5056106;28;20179;-59
2022/01/24 06:58:18;;;;;;;17.53;14.27;;;3.00;99.90;;;;;;5055615;28;20260;-61
2022/01/24 07:00:44;;;;;;;17.17;13.80;;;3.00;99.90;;;;;;5055516;28;20499;-60
2022/01/24 07:03:09;;;;;;;17.00;13.93;;;3.10;99.90;;;;;;5055936;28;20385;-61
2022/01/24 07:05:35;;;;;;;15.43;12.97;;;3.10;99.90;;;;;;5038048;28;20183;-58
2022/01/24 07:08:00;;;;;;;18.43;14.97;;;3.10;99.90;;;;;;5055328;28;20177;-59
2022/01/24 07:10:28;;;;;;;16.47;14.73;;;3.20;99.90;;;;;;5055782;28;20220;-57
2022/01/24 07:12:53;;;;;;;15.80;14.20;;;3.20;99.90;;;;;;5055620;28;20178;-58
2022/01/24 07:15:22;;;;;;;21.73;18.00;;;3.30;99.90;;;;;;5055645;28;20466;-58
2022/01/24 07:20:16;;;;;;;18.37;15.13;;;3.40;99.90;;;;;;5055903;28;20409;-59
2022/01/24 07:22:42;;;;;;;17.13;14.83;;;3.50;99.90;;;;;;5054880;28;20202;-58
2022/01/24 07:25:07;;;;;;;17.20;13.43;;;3.50;99.90;;;;;;5055482;28;20452;-61
2022/01/24 07:27:33;;;;;;;18.87;14.80;;;3.60;99.90;;;;;;5055634;28;20158;-61
2022/01/24 07:30:01;;;;;;;15.30;12.37;;;3.60;99.90;;;;;;5055690;28;20436;-61
2022/01/24 07:32:27;;;;;;;17.47;13.10;;;3.70;99.90;;;;;;5037552;28;20190;-60
2022/01/24 07:34:54;;;;;;;17.50;13.60;;;3.70;99.90;;;;;;5055190;28;20417;-62
2022/01/24 07:37:21;;;;;;;22.73;14.80;;;3.70;99.90;;;;;;5053717;28;20425;-60
2022/01/24 07:39:48;;;;;;;17.97;14.20;;;3.80;99.90;;;;;;5055241;28;20459;-59
2022/01/24 07:42:27;;;;;;;17.37;13.40;;;3.80;99.90;;;;;;5054870;28;20963;-60
2022/01/24 07:44:52;;;;;;;14.20;12.70;;;3.90;99.90;;;;;;5055222;28;20437;-60
2022/01/24 07:47:18;;;;;;;15.87;13.17;;;3.90;99.90;;;;;;5054896;28;20431;-58
2022/01/24 07:49:44;;;;;;;13.70;11.77;;;4.00;99.90;;;;;;5054909;28;20253;-60
2022/01/24 07:52:10;;;;;;;15.13;13.53;;;4.10;99.90;;;;;;5054886;28;20187;-60
2022/01/24 07:54:35;;;;;;;15.83;13.40;;;4.10;99.90;;;;;;5053865;28;20179;-60
2022/01/24 07:57:01;;;;;;;16.67;14.00;;;4.20;99.90;;;;;;5036874;28;20608;-60
2022/01/24 07:59:26;;;;;;;14.73;12.60;;;4.30;99.90;;;;;;5054872;28;20624;-59
2022/01/24 08:01:52;;;;;;;18.30;14.57;;;4.30;99.90;;;;;;5064022;22;20219;-57
2022/01/24 08:04:18;;;;;;;17.10;14.63;;;4.30;99.90;;;;;;5020579;28;20262;-57
2022/01/24 08:06:46;;;;;;;17.33;14.70;;;4.40;99.90;;;;;;5032381;28;20198;-58
2022/01/24 08:09:12;;;;;;;17.57;13.60;;;4.50;99.90;;;;;;5033329;28;20862;-59
2022/01/24 08:11:37;;;;;;;19.30;14.03;;;4.60;99.90;;;;;;5034410;28;20524;-58
2022/01/24 08:14:03;;;;;;;18.13;13.73;;;4.60;99.90;;;;;;5034910;28;20172;-59
2022/01/24 08:16:29;;;;;;;15.77;13.40;;;4.70;99.90;;;;;;5034518;28;20168;-57
2022/01/24 08:18:57;;;;;;;19.53;17.43;;;4.70;99.90;;;;;;5034882;28;20647;-59
2022/01/24 08:21:23;;;;;;;18.03;15.80;;;4.80;99.90;;;;;;5034755;28;20910;-58
2022/01/24 08:23:50;;;;;;;17.47;14.90;;;4.80;99.90;;;;;;5033957;28;20449;-59
2022/01/24 08:26:16;;;;;;;15.03;13.30;;;4.80;99.90;;;;;;5033239;28;20580;-59
2022/01/24 08:28:42;;;;;;;17.20;14.93;;;4.90;99.90;;;;;;5034138;28;20391;-59
2022/01/24 08:31:08;;;;;;;16.80;14.40;;;5.10;99.90;;;;;;5034183;28;20416;-58
2022/01/24 08:33:33;;;;;;;17.00;15.20;;;5.10;99.90;;;;;;5034356;28;20278;-59
2022/01/24 08:35:59;;;;;;;15.80;14.20;;;5.10;99.90;;;;;;5034706;28;20567;-58
2022/01/24 08:38:26;;;;;;;17.10;14.70;;;5.20;99.90;;;;;;5032525;28;20171;-59
2022/01/24 08:40:56;;;;;;;16.90;12.40;;;5.30;99.90;;;;;;5034005;28;20171;-58
2022/01/24 08:43:37;;;;;;;23.10;18.53;;;5.40;99.90;;;;;;5034318;28;20493;-59
2022/01/24 08:46:02;;;;;;;19.27;15.47;;;5.40;99.90;;;;;;5034304;28;20391;-59
2022/01/24 08:48:29;;;;;;;19.00;15.60;;;5.50;99.90;;;;;;5033855;28;20452;-59
2022/01/24 08:50:56;;;;;;;16.53;14.17;;;5.60;99.90;;;;;;5034199;28;20166;-59
2022/01/24 08:53:23;;;;;;;16.37;14.00;;;5.70;99.90;;;;;;5033204;28;20910;-58
2022/01/24 08:55:49;;;;;;;15.00;13.20;;;5.70;99.90;;;;;;5033460;28;20406;-57
2022/01/24 08:58:15;;;;;;;16.10;12.50;;;5.60;99.90;;;;;;5033698;28;20398;-57
2022/01/24 09:00:43;;;;;;;17.57;14.80;;;5.60;99.90;;;;;;5033344;28;20410;-56
2022/01/24 09:03:09;;;;;;;16.57;14.80;;;5.70;99.90;;;;;;5033566;28;20457;-58
2022/01/24 09:05:36;;;;;;;16.20;13.40;;;5.80;99.90;;;;;;5033059;28;20406;-59
2022/01/24 09:08:03;;;;;;;16.40;13.30;;;6.10;99.90;;;;;;5033515;28;20409;-59
2022/01/24 09:10:29;;;;;;;17.70;13.50;;;6.20;99.90;;;;;;5033701;28;20486;-59
2022/01/24 09:12:55;;;;;;;17.40;13.47;;;6.30;99.90;;;;;;5033699;28;20517;-59
2022/01/24 09:15:20;;;;;;;19.30;15.77;;;6.00;99.90;;;;;;5033316;28;20262;-59
2022/01/24 09:17:46;;;;;;;16.63;14.50;;;6.00;99.90;;;;;;5033579;28;20178;-58
2022/01/24 09:20:13;;;;;;;17.00;14.40;;;6.00;99.90;;;;;;5028106;28;20169;-59
2022/01/24 09:22:38;;;;;;;14.73;13.10;;;6.00;99.90;;;;;;4993006;28;20435;-59
2022/01/24 09:25:09;;;;;;;15.93;13.27;;;6.00;99.90;;;;;;5023518;28;20446;-59
2022/01/24 09:27:36;;;;;;;17.57;14.10;;;5.90;99.90;;;;;;5015491;28;20207;-59
2022/01/24 09:30:02;;;;;;;21.60;14.47;;;5.70;99.90;;;;;;5033131;28;20407;-57
2022/01/24 09:32:28;;;;;;;22.13;15.53;;;5.50;99.90;;;;;;5033284;28;20461;-52
2022/01/24 09:34:54;;;;;;;16.50;14.50;;;5.40;99.90;;;;;;5033136;28;20488;-59
2022/01/24 09:37:19;;;;;;;20.43;14.93;;;5.50;99.90;;;;;;5031705;28;20640;-59
2022/01/24 09:39:45;;;;;;;20.23;15.13;;;5.60;99.90;;;;;;5033622;28;20175;-57
2022/01/24 09:42:10;;;;;;;19.77;15.23;;;5.80;99.90;;;;;;5033176;28;20648;-58
2022/01/24 09:44:36;;;;;;;19.07;14.27;;;5.80;99.90;;;;;;5032519;28;20286;-59
2022/01/24 09:47:02;;;;;;;18.53;14.83;;;5.80;99.90;;;;;;5033417;28;20270;-57
2022/01/24 09:49:27;;;;;;;18.90;11.93;;;5.80;99.90;;;;;;5032943;28;20171;-58
2022/01/24 09:51:53;;;;;;;14.53;13.00;;;5.60;99.90;;;;;;5033079;28;20627;-58
2022/01/24 09:54:19;;;;;;;13.13;11.73;;;5.40;99.90;;;;;;5032922;28;20695;-57
2022/01/24 09:56:44;;;;;;;15.63;12.70;;;5.60;99.90;;;;;;5031471;28;20270;-58
2022/01/24 09:59:10;;;;;;;16.50;13.20;;;5.80;99.90;;;;;;5012680;28;20410;-59
2022/01/24 10:01:36;;;;;;;13.63;12.20;;;5.90;99.90;;;;;;5013056;28;20211;-58
2022/01/24 10:04:17;;;;;;;12.73;11.43;;;5.90;99.90;;;;;;5013174;28;20542;-59
2022/01/24 10:07:22;;;;;;;11.20;10.20;;;6.10;99.90;;;;;;5033092;28;20382;-59
2022/01/24 10:09:53;;;;;;;12.53;11.23;;;6.30;99.90;;;;;;4972216;28;20422;-59
2022/01/24 10:17:38;;;;;;;11.57;9.93;;;6.00;99.90;;;;;;5033355;28;20471;-59
2022/01/24 10:20:23;;;;;;;10.10;9.10;;;6.10;99.90;;;;;;5036374;28;20411;-59
2022/01/24 10:23:09;;;;;;;12.03;8.73;;;6.20;99.90;;;;;;5037090;28;20428;-59
2022/01/24 10:25:47;;;;;;;11.17;9.40;;;6.10;99.90;;;;;;5036627;28;20419;-59
2022/01/24 10:28:22;;;;;;;10.70;8.17;;;6.20;99.90;;;;;;5036355;28;20484;-59
2022/01/24 10:31:10;;;;;;;9.20;8.30;;;6.10;99.90;;;;;;5036580;28;20792;-59
2022/01/24 10:34:23;;;;;;;9.17;8.00;;;6.20;99.90;;;;;;5036733;28;20715;-58
2022/01/24 10:36:52;;;;;;;9.67;7.47;;;6.20;99.90;;;;;;5024324;28;20530;-59
2022/01/24 10:39:34;;;;;;;8.40;7.50;;;6.20;99.90;;;;;;5023913;28;20425;-59
2022/01/24 10:45:15;;;;;;;8.23;7.37;;;6.20;99.90;;;;;;5022425;28;20454;-57
2022/01/24 10:47:47;;;;;;;10.40;8.57;;;6.20;99.90;;;;;;5009635;28;20414;-58
2022/01/24 10:50:28;;;;;;;8.00;7.23;;;6.50;99.90;;;;;;5017020;28;20403;-57
2022/01/24 10:52:55;;;;;;;7.67;6.97;;;6.70;99.90;;;;;;5006866;28;20529;-57
2022/01/24 10:55:26;;;;;;;6.97;6.10;;;6.60;99.90;;;;;;5011815;28;20427;-59
2022/01/24 10:57:56;;;;;;;8.17;7.07;;;6.70;99.90;;;;;;5017203;28;20463;-59
2022/01/24 11:00:25;;;;;;;7.97;7.23;;;6.60;99.90;;;;;;5017393;28;20413;-58
2022/01/24 11:02:52;;;;;;;7.33;6.67;;;6.60;99.90;;;;;;5025427;28;20911;-59
2022/01/24 11:05:21;;;;;;;7.37;6.77;;;6.70;99.90;;;;;;5012599;28;20462;-56
2022/01/24 11:07:49;;;;;;;10.27;7.17;;;6.60;99.90;;;;;;5010052;28;20448;-60
2022/01/24 11:10:15;;;;;;;8.20;6.53;;;6.60;99.90;;;;;;5017304;28;20441;-59
2022/01/24 11:12:41;;;;;;;13.43;8.13;;;6.90;99.90;;;;;;4993252;28;20492;-57
2022/01/24 11:15:07;;;;;;;7.40;6.70;;;7.90;99.90;;;;;;5012059;28;20478;-57
2022/01/24 11:17:34;;;;;;;7.50;6.13;;;8.80;99.90;;;;;;5016109;28;20495;-57
2022/01/24 11:20:02;;;;;;;6.73;6.03;;;10.50;99.90;;;;;;5015744;28;20491;-58
2022/01/24 11:22:30;;;;;;;6.77;6.17;;;11.20;99.90;;;;;;5015886;28;20427;-58
2022/01/24 11:25:04;;;;;;;6.87;6.10;;;11.60;99.60;;;;;;5016007;28;20448;-58
2022/01/24 11:27:32;;;;;;;6.20;5.60;;;12.70;98.70;;;;;;5016036;28;20444;-56
2022/01/24 11:30:02;;;;;;;5.70;5.27;;;13.10;96.60;;;;;;5015159;28;20414;-57
2022/01/24 11:32:47;;;;;;;6.03;5.30;;;14.20;96.70;;;;;;5015795;28;20430;-58
2022/01/24 11:35:13;;;;;;;6.40;5.40;;;15.40;93.50;;;;;;5026267;28;20431;-58
2022/01/24 11:37:45;;;;;;;7.50;5.50;;;13.90;93.60;;;;;;5035675;28;20413;-59
2022/01/24 11:40:19;;;;;;;5.20;4.57;;;13.30;94.20;;;;;;5035520;28;20184;-59
2022/01/24 11:42:47;;;;;;;6.40;5.80;;;14.10;93.70;;;;;;5035093;28;20425;-59
2022/01/24 11:45:18;;;;;;;8.07;5.87;;;14.40;93.80;;;;;;5034959;28;20510;-56
2022/01/24 11:47:46;;;;;;;7.30;5.30;;;14.40;92.50;;;;;;5035200;28;20396;-57
2022/01/24 11:50:31;;;;;;;6.70;5.67;;;15.20;92.10;;;;;;5034982;28;20408;-59
2022/01/24 11:52:57;;;;;;;8.50;5.80;;;15.30;92.10;;;;;;5035106;28;20419;-59
2022/01/24 11:55:38;;;;;;;6.03;5.00;;;16.70;90.00;;;;;;5035077;28;20417;-58
2022/01/24 11:58:07;;;;;;;5.97;5.33;;;16.50;87.90;;;;;;5016820;28;20720;-59
2022/01/24 12:00:39;;;;;;;6.23;5.63;;;17.50;85.90;;;;;;5014817;28;20433;-59
2022/01/24 12:03:23;;;;;;;5.70;4.50;;;16.20;84.10;;;;;;4993128;28;20475;-59
2022/01/24 12:05:53;;;;;;;4.70;4.23;;;16.10;89.30;;;;;;5024018;28;20435;-59
2022/01/24 12:08:41;;;;;;;6.67;6.00;;;16.10;87.60;;;;;;5035454;28;20388;-59
2022/01/24 12:11:13;;;;;;;8.00;7.30;;;16.70;84.60;;;;;;5034425;28;20382;-59
2022/01/24 12:13:56;;;;;;;10.60;8.03;;;17.30;84.20;;;;;;5034369;28;20851;-58
2022/01/24 12:16:33;;;;;;;22.03;7.47;;;17.50;83.60;;;;;;5034841;28;20390;-59
2022/01/24 12:19:01;;;;;;;6.37;5.77;;;18.70;80.50;;;;;;5034591;28;20394;-59
2022/01/24 12:21:28;;;;;;;6.90;6.30;;;19.30;78.70;;;;;;5034466;28;20422;-59
2022/01/24 12:23:59;;;;;;;6.20;5.70;;;18.80;76.10;;;;;;5034579;28;20445;-58
2022/01/24 12:26:28;;;;;;;5.17;4.60;;;17.10;79.00;;;;;;5034383;28;20378;-59
2022/01/24 12:29:06;;;;;;;8.60;6.20;;;17.70;78.80;;;;;;5034148;28;20998;-59
2022/01/24 12:31:53;;;;;;;6.17;5.13;;;17.60;78.20;;;;;;5034559;28;20501;-59
2022/01/24 12:34:25;;;;;;;5.90;5.40;;;18.70;78.20;;;;;;5034377;28;20468;-58
2022/01/24 12:37:00;;;;;;;7.50;6.80;;;19.70;75.30;;;;;;5034869;28;20382;-59
2022/01/24 12:39:34;;;;;;;5.70;4.73;;;19.50;73.00;;;;;;5034465;28;20454;-59
2022/01/24 12:42:14;;;;;;;5.20;4.73;;;20.80;71.40;;;;;;5033425;28;20426;-59
2022/01/24 12:47:10;;;;;;;4.93;4.50;;;20.70;68.30;;;;;;5033893;28;20803;-59
2022/01/24 12:49:36;;;;;;;5.03;4.63;;;18.10;71.70;;;;;;5033654;28;20398;-59
2022/01/24 12:52:09;;;;;;;5.73;5.33;;;17.20;75.00;;;;;;5033771;28;20615;-59
2022/01/24 12:54:43;;;;;;;6.50;5.90;;;18.00;74.70;;;;;;5034033;28;20796;-59
2022/01/24 12:57:14;;;;;;;6.50;5.20;;;16.90;75.60;;;;;;5016035;28;20402;-59
2022/01/24 12:59:52;;;;;;;5.80;5.30;;;17.50;75.00;;;;;;5033777;28;20757;-55
2022/01/24 13:02:27;;;;;;;6.27;5.67;;;15.00;79.10;;;;;;5033796;28;20448;-59
2022/01/24 13:05:00;;;;;;;5.07;4.57;;;13.40;84.70;;;;;;5033533;28;20479;-59
2022/01/24 13:07:26;;;;;;;5.57;4.97;;;12.20;88.10;;;;;;5033894;28;20417;-59
2022/01/24 13:10:03;;;;;;;5.70;5.00;;;11.20;91.50;;;;;;5033922;28;20399;-59
2022/01/24 13:12:28;;;;;;;9.77;6.63;;;10.90;92.80;;;;;;5032325;28;20457;-59
2022/01/24 13:14:58;;;;;;;7.13;5.77;;;10.80;93.70;;;;;;5033563;28;20398;-59
2022/01/24 13:23:11;;;;;;;6.87;6.10;;;9.70;97.80;;;;;;4977445;28;20486;-57
2022/01/24 13:25:39;;;;;;;10.13;5.87;;;9.30;99.20;;;;;;5033303;28;20439;-57
2022/01/24 13:28:07;;;;;;;6.33;5.73;;;9.30;99.90;;;;;;5033509;28;20417;-59
2022/01/24 13:30:46;;;;;;;5.27;4.70;;;9.20;99.90;;;;;;5015232;28;20427;-56
2022/01/24 13:33:16;;;;;;;5.90;4.80;;;9.10;99.90;;;;;;5033010;28;20413;-59
2022/01/24 13:35:51;;;;;;;7.03;5.30;;;9.00;99.90;;;;;;5032753;28;20413;-59
2022/01/24 13:38:29;;;;;;;8.90;5.50;;;8.80;99.90;;;;;;5033293;28;20392;-59
2022/01/24 13:41:04;;;;;;;6.43;5.00;;;8.90;99.90;;;;;;5033028;28;20462;-59
2022/01/24 13:43:44;;;;;;;5.97;5.37;;;8.80;99.90;;;;;;5033012;28;20428;-59
2022/01/24 13:46:13;;;;;;;7.67;5.03;;;8.60;99.90;;;;;;5033327;28;20380;-58
2022/01/24 13:48:57;;;;;;;8.50;6.17;;;8.50;99.90;;;;;;5007974;28;20932;-59
2022/01/24 13:51:44;;;;;;;6.37;5.70;;;8.60;99.90;;;;;;4993329;28;20949;-59
2022/01/24 13:54:12;;;;;;;6.37;5.80;;;8.70;99.90;;;;;;5013285;28;20416;-57
2022/01/24 13:56:44;;;;;;;5.70;5.20;;;8.80;99.90;;;;;;5032914;28;20783;-59
2022/01/24 13:59:27;;;;;;;6.13;5.53;;;8.60;99.90;;;;;;5012085;28;20408;-59
2022/01/24 14:01:53;;;;;;;6.33;5.00;;;8.30;99.90;;;;;;5054006;22;21684;-59
2022/01/24 14:04:32;;;;;;;5.90;5.27;;;8.40;99.90;;;;;;5032676;28;20459;-59
2022/01/24 14:07:24;;;;;;;7.30;5.17;;;8.60;99.90;;;;;;5015638;28;20408;-57
2022/01/24 14:09:53;;;;;;;7.93;4.70;;;8.80;99.90;;;;;;5012882;28;20406;-59
2022/01/24 14:12:22;;;;;;;9.50;5.07;;;8.90;99.90;;;;;;5041003;28;20420;-60
2022/01/24 14:15:01;;;;;;;5.67;4.77;;;8.90;99.90;;;;;;5052833;28;20416;-60
2022/01/24 14:17:45;;;;;;;6.00;4.90;;;8.70;99.90;;;;;;5034155;28;20403;-59
2022/01/24 14:20:14;;;;;;;5.20;4.70;;;8.60;99.90;;;;;;5046346;28;20424;-58
2022/01/24 14:22:52;;;;;;;5.73;4.57;;;8.60;99.90;;;;;;5022899;28;20506;-60
2022/01/24 14:25:19;;;;;;;5.50;4.67;;;8.60;99.90;;;;;;5023508;28;20458;-60
2022/01/24 14:27:56;;;;;;;8.23;5.03;;;8.60;99.90;;;;;;5023943;28;20470;-59
2022/01/24 14:30:25;;;;;;;5.70;5.13;;;8.30;99.90;;;;;;5024061;28;20667;-59
2022/01/24 14:33:28;;;;;;;9.23;5.20;;;8.20;99.90;;;;;;5023579;28;20434;-58
2022/01/24 14:36:05;;;;;;;9.67;5.60;;;8.50;99.90;;;;;;5023234;28;20487;-59
2022/01/24 14:38:39;;;;;;;5.80;4.80;;;8.60;99.90;;;;;;5023331;28;20452;-58
2022/01/24 14:41:25;;;;;;;6.00;4.17;;;8.70;99.90;;;;;;5022933;28;20979;-58
2022/01/24 14:46:38;;;;;;;10.20;5.30;;;8.70;99.90;;;;;;5023464;28;20762;-60
2022/01/24 14:49:08;;;;;;;4.70;4.23;;;8.50;99.90;;;;;;5022936;28;20466;-58
2022/01/24 14:51:39;;;;;;;4.80;4.30;;;8.20;99.90;;;;;;5022927;28;20674;-58
2022/01/24 14:54:11;;;;;;;7.17;4.63;;;8.30;99.90;;;;;;5023452;28;20425;-60
2022/01/24 14:56:40;;;;;;;5.10;4.60;;;8.40;99.90;;;;;;5029572;28;20410;-60
2022/01/24 14:59:07;;;;;;;9.37;5.23;;;8.40;99.90;;;;;;5031966;28;20423;-60